createdAt,value
2022-11-13T00:00:21.401Z,0
2022-11-13T00:01:21.039Z,0
2022-11-13T00:02:21.520Z,0
2022-11-13T00:03:21.348Z,0
2022-11-13T00:04:21.081Z,0
2022-11-13T00:05:21.112Z,0
2022-11-13T00:06:21.353Z,0
2022-11-13T00:07:21.744Z,0
2022-11-13T00:08:21.162Z,0
2022-11-13T00:09:21.194Z,0
2022-11-13T00:10:21.451Z,0
2022-11-13T00:11:21.040Z,0
2022-11-13T00:12:21.944Z,0
2022-11-13T00:13:23.960Z,0
2022-11-13T00:14:21.529Z,0
2022-11-13T00:15:21.015Z,0
2022-11-13T00:16:21.415Z,0
2022-11-13T00:17:21.390Z,0
2022-11-13T00:18:21.356Z,0
2022-11-13T00:19:21.080Z,0
2022-11-13T00:20:21.089Z,0
2022-11-13T00:21:21.442Z,0
2022-11-13T00:22:21.654Z,0
2022-11-13T00:23:21.810Z,0
2022-11-13T00:24:21.695Z,0
2022-11-13T00:25:21.450Z,0
2022-11-13T00:26:21.725Z,0
2022-11-13T00:27:21.231Z,0
2022-11-13T00:28:22.002Z,0
2022-11-13T00:29:21.766Z,0
2022-11-13T00:30:26.203Z,0
2022-11-13T00:31:21.565Z,0
2022-11-13T00:32:21.692Z,0
2022-11-13T00:35:07.980Z,0
2022-11-13T00:36:07.998Z,0
2022-11-13T00:37:08.028Z,0
2022-11-13T00:38:08.583Z,0
2022-11-13T00:39:08.166Z,0
2022-11-13T00:40:07.806Z,0
2022-11-13T00:41:07.830Z,0
2022-11-13T00:42:08.522Z,0
2022-11-13T00:43:08.127Z,0
2022-11-13T00:44:08.378Z,0
2022-11-13T00:45:08.397Z,0
2022-11-13T00:46:08.417Z,0
2022-11-13T00:47:07.929Z,0
2022-11-13T00:48:08.317Z,0
2022-11-13T00:49:08.227Z,0
2022-11-13T00:50:08.498Z,0
2022-11-13T00:51:08.516Z,0
2022-11-13T00:52:08.261Z,0
2022-11-13T00:53:07.757Z,0
2022-11-13T00:54:08.290Z,0
2022-11-13T00:55:08.699Z,0
2022-11-13T00:56:08.330Z,0
2022-11-13T00:57:08.090Z,0
2022-11-13T00:58:08.106Z,0
2022-11-13T00:59:08.638Z,0
2022-11-13T01:00:08.907Z,0
2022-11-13T01:01:08.526Z,0
2022-11-13T01:02:08.721Z,0
2022-11-13T01:03:08.201Z,0
2022-11-13T01:04:08.582Z,0
2022-11-13T01:05:08.476Z,0
2022-11-13T01:06:08.763Z,0
2022-11-13T01:07:09.002Z,0
2022-11-13T01:08:08.521Z,0
2022-11-13T01:09:08.550Z,0
2022-11-13T01:10:08.554Z,0
2022-11-13T01:11:08.961Z,0
2022-11-13T01:12:08.855Z,0
2022-11-13T01:13:08.881Z,0
2022-11-13T01:14:08.648Z,0
2022-11-13T01:15:08.917Z,0
2022-11-13T01:16:09.151Z,0
2022-11-13T01:17:08.700Z,0
2022-11-13T01:18:08.965Z,0
2022-11-13T01:19:09.118Z,0
2022-11-13T01:20:08.841Z,0
2022-11-13T01:21:08.747Z,0
2022-11-13T01:22:09.029Z,0
2022-11-13T01:23:08.861Z,0
2022-11-13T01:24:09.068Z,0
2022-11-13T01:25:08.815Z,0
2022-11-13T01:26:08.842Z,0
2022-11-13T01:27:08.960Z,0
2022-11-13T01:28:08.644Z,0
2022-11-13T01:29:08.898Z,0
2022-11-13T01:30:08.927Z,0
2022-11-13T01:31:09.184Z,0
2022-11-13T01:32:09.440Z,0
2022-11-13T01:33:08.787Z,0
2022-11-13T01:34:08.978Z,0
2022-11-13T01:35:09.004Z,0
2022-11-13T01:36:09.384Z,0
2022-11-13T01:37:09.287Z,0
2022-11-13T01:38:08.886Z,0
2022-11-13T01:39:08.800Z,0
2022-11-13T01:40:09.331Z,0
2022-11-13T01:41:09.353Z,0
2022-11-13T01:42:08.857Z,0
2022-11-13T01:43:09.497Z,0
2022-11-13T01:44:15.684Z,0
2022-11-13T01:45:09.158Z,0
2022-11-13T01:46:09.175Z,0
2022-11-13T01:47:09.457Z,0
2022-11-13T01:48:09.704Z,0
2022-11-13T01:49:09.490Z,0
2022-11-13T01:50:09.506Z,0
2022-11-13T01:51:09.515Z,0
2022-11-13T01:52:09.416Z,0
2022-11-13T01:53:09.556Z,0
2022-11-13T01:54:09.579Z,0
2022-11-13T01:55:09.599Z,0
2022-11-13T01:56:09.345Z,0
2022-11-13T01:57:09.624Z,0
2022-11-13T01:58:09.642Z,0
2022-11-13T01:59:09.770Z,0
2022-11-13T02:00:09.667Z,0
2022-11-13T02:01:09.434Z,0
2022-11-13T02:02:09.568Z,0
2022-11-13T02:03:09.731Z,0
2022-11-13T02:04:09.752Z,0
2022-11-13T02:05:09.758Z,0
2022-11-13T02:06:09.782Z,0
2022-11-13T02:07:09.825Z,0
2022-11-13T02:08:09.409Z,0
2022-11-13T02:09:09.831Z,0
2022-11-13T02:10:09.617Z,0
2022-11-13T02:11:09.883Z,0
2022-11-13T02:12:09.626Z,0
2022-11-13T02:13:09.691Z,0
2022-11-13T02:14:09.653Z,0
2022-11-13T02:15:10.041Z,0
2022-11-13T02:16:09.946Z,0
2022-11-13T02:17:10.132Z,0
2022-11-13T02:18:10.127Z,0
2022-11-13T02:19:09.729Z,0
2022-11-13T02:20:10.150Z,0
2022-11-13T02:21:10.252Z,0
2022-11-13T02:22:09.882Z,0
2022-11-13T02:23:10.101Z,0
2022-11-13T02:24:09.730Z,0
2022-11-13T02:25:09.610Z,0
2022-11-13T02:26:10.165Z,0
2022-11-13T02:27:09.610Z,0
2022-11-13T02:28:10.139Z,0
2022-11-13T02:29:09.659Z,0
2022-11-13T02:30:17.525Z,0
2022-11-13T02:31:10.063Z,0
2022-11-13T02:32:10.205Z,0
2022-11-13T02:33:09.719Z,0
2022-11-13T02:34:10.165Z,0
2022-11-13T02:35:09.748Z,0
2022-11-13T02:36:10.568Z,0
2022-11-13T02:37:10.033Z,0
2022-11-13T02:38:09.999Z,0
2022-11-13T02:39:10.072Z,0
2022-11-13T02:40:10.197Z,0
2022-11-13T02:41:10.367Z,0
2022-11-13T02:42:09.870Z,0
2022-11-13T02:43:10.144Z,0
2022-11-13T02:44:10.156Z,0
2022-11-13T02:45:10.424Z,0
2022-11-13T02:46:10.457Z,0
2022-11-13T02:47:10.332Z,0
2022-11-13T02:48:09.997Z,0
2022-11-13T02:49:09.985Z,0
2022-11-13T02:50:09.989Z,0
2022-11-13T02:51:10.265Z,0
2022-11-13T02:52:10.519Z,0
2022-11-13T02:53:10.319Z,0
2022-11-13T02:54:16.644Z,0
2022-11-13T02:55:10.350Z,0
2022-11-13T02:56:10.458Z,0
2022-11-13T02:57:09.853Z,0
2022-11-13T02:58:10.648Z,0
2022-11-13T02:59:10.418Z,0
2022-11-13T03:00:17.078Z,0
2022-11-13T03:01:10.752Z,0
2022-11-13T03:02:10.458Z,0
2022-11-13T03:03:10.846Z,0
2022-11-13T03:04:10.493Z,0
2022-11-13T03:05:19.808Z,0
2022-11-13T03:06:10.530Z,0
2022-11-13T03:07:11.153Z,0
2022-11-13T03:08:10.810Z,0
2022-11-13T03:09:10.310Z,0
2022-11-13T03:10:10.857Z,0
2022-11-13T03:11:10.818Z,0
2022-11-13T03:12:10.986Z,0
2022-11-13T03:13:10.629Z,0
2022-11-13T03:14:10.652Z,0
2022-11-13T03:15:10.670Z,0
2022-11-13T03:16:10.952Z,0
2022-11-13T03:17:10.696Z,0
2022-11-13T03:18:10.480Z,0
2022-11-13T03:19:11.644Z,0
2022-11-13T03:20:10.761Z,0
2022-11-13T03:21:11.016Z,0
2022-11-13T03:22:10.786Z,0
2022-11-13T03:23:11.066Z,0
2022-11-13T03:24:11.071Z,0
2022-11-13T03:25:17.138Z,0
2022-11-13T03:26:10.860Z,0
2022-11-13T03:27:11.135Z,0
2022-11-13T03:28:11.004Z,0
2022-11-13T03:29:11.167Z,0
2022-11-13T03:30:10.685Z,0
2022-11-13T03:31:10.950Z,0
2022-11-13T03:32:11.227Z,0
2022-11-13T03:33:10.971Z,0
2022-11-13T03:34:11.248Z,0
2022-11-13T03:35:11.387Z,0
2022-11-13T03:36:10.761Z,0
2022-11-13T03:37:11.313Z,0
2022-11-13T03:38:11.418Z,0
2022-11-13T03:39:11.338Z,0
2022-11-13T03:40:11.388Z,0
2022-11-13T03:41:10.842Z,0
2022-11-13T03:42:11.390Z,0
2022-11-13T03:43:11.148Z,0
2022-11-13T03:44:11.546Z,0
2022-11-13T03:45:11.174Z,0
2022-11-13T03:46:11.207Z,0
2022-11-13T03:47:10.940Z,0
2022-11-13T03:48:10.973Z,0
2022-11-13T03:49:11.501Z,0
2022-11-13T03:50:10.744Z,0
2022-11-13T03:51:11.130Z,0
2022-11-13T03:52:11.556Z,0
2022-11-13T03:53:11.554Z,0
2022-11-13T03:54:11.594Z,0
2022-11-13T03:55:10.832Z,0
2022-11-13T03:56:11.845Z,0
2022-11-13T03:57:11.383Z,0
2022-11-13T03:58:11.388Z,0
2022-11-13T03:59:11.150Z,0
2022-11-13T04:00:11.540Z,0
2022-11-13T04:01:11.718Z,0
2022-11-13T04:02:11.939Z,0
2022-11-13T04:03:11.738Z,0
2022-11-13T04:04:11.490Z,0
2022-11-13T04:05:11.764Z,0
2022-11-13T04:06:11.258Z,0
2022-11-13T04:07:12.221Z,0
2022-11-13T04:08:11.816Z,0
2022-11-13T04:09:11.088Z,0
2022-11-13T04:10:11.591Z,0
2022-11-13T04:11:11.861Z,0
2022-11-13T04:12:11.864Z,0
2022-11-13T04:13:11.129Z,0
2022-11-13T04:14:11.912Z,0
2022-11-13T04:15:11.482Z,0
2022-11-13T04:16:11.718Z,0
2022-11-13T04:17:11.451Z,0
2022-11-13T04:18:11.974Z,0
2022-11-13T04:19:11.753Z,0
2022-11-13T04:20:11.751Z,0
2022-11-13T04:21:12.047Z,0
2022-11-13T04:22:11.784Z,0
2022-11-13T04:23:11.703Z,0
2022-11-13T04:24:11.560Z,0
2022-11-13T04:25:11.841Z,0
2022-11-13T04:26:12.100Z,0
2022-11-13T04:27:12.128Z,0
2022-11-13T04:28:12.368Z,0
2022-11-13T04:29:11.911Z,0
2022-11-13T04:30:12.173Z,0
2022-11-13T04:31:12.198Z,0
2022-11-13T04:32:12.328Z,0
2022-11-13T04:33:12.241Z,0
2022-11-13T04:34:11.982Z,0
2022-11-13T04:35:12.255Z,0
2022-11-13T04:36:12.275Z,0
2022-11-13T04:37:12.047Z,0
2022-11-13T04:38:12.154Z,0
2022-11-13T04:39:12.457Z,0
2022-11-13T04:40:12.332Z,0
2022-11-13T04:41:12.106Z,0
2022-11-13T04:42:12.121Z,0
2022-11-13T04:43:12.145Z,0
2022-11-13T04:44:12.658Z,0
2022-11-13T04:45:11.906Z,0
2022-11-13T04:46:12.185Z,0
2022-11-13T04:47:11.954Z,0
2022-11-13T04:48:12.194Z,0
2022-11-13T04:49:12.232Z,0
2022-11-13T04:50:12.262Z,0
2022-11-13T04:51:12.261Z,0
2022-11-13T04:52:12.287Z,0
2022-11-13T04:53:12.295Z,0
2022-11-13T04:54:12.317Z,0
2022-11-13T04:55:12.724Z,0
2022-11-13T04:56:12.345Z,0
2022-11-13T04:57:12.620Z,0
2022-11-13T04:58:12.646Z,0
2022-11-13T04:59:12.150Z,0
2022-11-13T05:00:12.865Z,0
2022-11-13T05:01:12.438Z,0
2022-11-13T05:02:12.037Z,0
2022-11-13T05:03:12.731Z,0
2022-11-13T05:04:12.348Z,0
2022-11-13T05:05:12.907Z,0
2022-11-13T05:06:12.519Z,0
2022-11-13T05:07:12.746Z,0
2022-11-13T05:08:12.863Z,0
2022-11-13T05:09:12.564Z,0
2022-11-13T05:10:12.905Z,0
2022-11-13T05:11:12.892Z,0
2022-11-13T05:12:12.897Z,0
2022-11-13T05:13:12.935Z,0
2022-11-13T05:14:12.659Z,0
2022-11-13T05:15:12.406Z,0
2022-11-13T05:16:13.175Z,0
2022-11-13T05:17:12.186Z,0
2022-11-13T05:18:12.978Z,0
2022-11-13T05:19:12.728Z,0
2022-11-13T05:20:12.867Z,0
2022-11-13T05:21:12.869Z,0
2022-11-13T05:22:13.047Z,0
2022-11-13T05:23:12.910Z,0
2022-11-13T05:24:12.805Z,0
2022-11-13T05:25:13.299Z,0
2022-11-13T05:26:12.900Z,0
2022-11-13T05:27:20.290Z,0
2022-11-13T05:28:12.935Z,0
2022-11-13T05:29:12.635Z,0
2022-11-13T05:30:13.025Z,0
2022-11-13T05:31:13.159Z,0
2022-11-13T05:32:13.238Z,0
2022-11-13T05:33:12.902Z,0
2022-11-13T05:34:13.641Z,0
2022-11-13T05:35:13.246Z,0
2022-11-13T05:36:13.137Z,0
2022-11-13T05:37:12.993Z,0
2022-11-13T05:38:13.081Z,0
2022-11-13T05:39:13.308Z,0
2022-11-13T05:40:13.083Z,0
2022-11-13T05:41:12.886Z,0
2022-11-13T05:42:13.371Z,0
2022-11-13T05:43:13.400Z,0
2022-11-13T05:44:13.135Z,0
2022-11-13T05:45:13.416Z,0
2022-11-13T05:46:12.671Z,0
2022-11-13T05:47:13.440Z,0
2022-11-13T05:48:13.691Z,0
2022-11-13T05:49:13.221Z,0
2022-11-13T05:50:13.489Z,0
2022-11-13T05:51:13.253Z,0
2022-11-13T05:52:13.392Z,0
2022-11-13T05:53:13.285Z,0
2022-11-13T05:54:13.315Z,0
2022-11-13T05:55:13.062Z,0
2022-11-13T05:56:13.583Z,0
2022-11-13T05:57:13.350Z,0
2022-11-13T05:58:13.626Z,0
2022-11-13T05:59:13.252Z,0
2022-11-13T06:00:13.660Z,0
2022-11-13T06:01:13.428Z,0
2022-11-13T06:02:13.562Z,0
2022-11-13T06:03:13.459Z,0
2022-11-13T06:04:13.694Z,0
2022-11-13T06:05:13.491Z,0
2022-11-13T06:06:13.500Z,0
2022-11-13T06:07:13.467Z,0
2022-11-13T06:08:13.641Z,0
2022-11-13T06:09:13.553Z,0
2022-11-13T06:10:13.564Z,0
2022-11-13T06:11:13.577Z,0
2022-11-13T06:12:13.860Z,4
2022-11-13T06:13:13.612Z,0
2022-11-13T06:14:13.627Z,0
2022-11-13T06:15:14.035Z,4
2022-11-13T06:16:13.653Z,4
2022-11-13T06:17:13.942Z,0
2022-11-13T06:18:13.726Z,4
2022-11-13T06:19:13.724Z,4
2022-11-13T06:20:14.227Z,4
2022-11-13T06:21:13.483Z,4
2022-11-13T06:22:13.766Z,8
2022-11-13T06:23:14.047Z,8
2022-11-13T06:24:13.906Z,8
2022-11-13T06:25:13.821Z,8
2022-11-13T06:26:14.091Z,8
2022-11-13T06:27:13.576Z,16
2022-11-13T06:28:14.132Z,16
2022-11-13T06:29:14.162Z,16
2022-11-13T06:30:14.167Z,16
2022-11-13T06:31:14.291Z,20
2022-11-13T06:32:13.976Z,24
2022-11-13T06:33:13.930Z,28
2022-11-13T06:34:14.234Z,28
2022-11-13T06:35:13.975Z,32
2022-11-13T06:36:14.482Z,36
2022-11-13T06:37:14.007Z,44
2022-11-13T06:38:14.338Z,44
2022-11-13T06:39:14.434Z,48
2022-11-13T06:40:14.241Z,52
2022-11-13T06:41:14.340Z,60
2022-11-13T06:42:14.113Z,60
2022-11-13T06:43:14.112Z,68
2022-11-13T06:44:14.396Z,72
2022-11-13T06:45:14.146Z,76
2022-11-13T06:46:14.161Z,80
2022-11-13T06:47:14.327Z,88
2022-11-13T06:48:14.449Z,92
2022-11-13T06:49:14.471Z,96
2022-11-13T06:50:14.486Z,104
2022-11-13T06:51:14.245Z,112
2022-11-13T06:52:14.762Z,116
2022-11-13T06:53:14.266Z,120
2022-11-13T06:54:14.035Z,128
2022-11-13T06:55:14.342Z,132
2022-11-13T06:56:14.442Z,140
2022-11-13T06:57:14.358Z,148
2022-11-13T06:58:14.643Z,152
2022-11-13T06:59:15.639Z,160
2022-11-13T07:00:14.737Z,160
2022-11-13T07:01:14.650Z,168
2022-11-13T07:02:14.683Z,172
2022-11-13T07:03:14.834Z,180
2022-11-13T07:04:14.464Z,188
2022-11-13T07:05:14.481Z,192
2022-11-13T07:06:14.836Z,200
2022-11-13T07:07:14.598Z,204
2022-11-13T07:08:15.028Z,208
2022-11-13T07:09:14.531Z,216
2022-11-13T07:10:14.566Z,216
2022-11-13T07:11:14.846Z,224
2022-11-13T07:12:14.186Z,228
2022-11-13T07:13:14.608Z,232
2022-11-13T07:14:14.872Z,240
2022-11-13T07:15:14.890Z,248
2022-11-13T07:16:24.228Z,260
2022-11-13T07:17:17.758Z,272
2022-11-13T07:18:14.690Z,284
2022-11-13T07:19:15.086Z,296
2022-11-13T07:20:14.705Z,312
2022-11-13T07:21:15.000Z,324
2022-11-13T07:22:15.017Z,340
2022-11-13T07:23:14.763Z,348
2022-11-13T07:24:22.223Z,344
2022-11-13T07:25:14.808Z,340
2022-11-13T07:26:14.822Z,344
2022-11-13T07:27:15.096Z,348
2022-11-13T07:28:14.965Z,356
2022-11-13T07:29:14.876Z,364
2022-11-13T07:30:14.899Z,388
2022-11-13T07:31:14.906Z,408
2022-11-13T07:32:15.631Z,432
2022-11-13T07:33:15.040Z,452
2022-11-13T07:34:14.945Z,460
2022-11-13T07:35:15.363Z,472
2022-11-13T07:36:14.466Z,480
2022-11-13T07:37:14.998Z,488
2022-11-13T07:38:15.286Z,496
2022-11-13T07:39:15.295Z,508
2022-11-13T07:40:15.389Z,516
2022-11-13T07:41:15.340Z,520
2022-11-13T07:42:14.824Z,528
2022-11-13T07:43:15.351Z,536
2022-11-13T07:44:55.894Z,544
2022-11-13T07:45:15.406Z,548
2022-11-13T07:46:15.293Z,552
2022-11-13T07:47:14.908Z,552
2022-11-13T07:48:15.335Z,556
2022-11-13T07:49:15.301Z,560
2022-11-13T07:50:17.947Z,564
2022-11-13T07:51:15.090Z,568
2022-11-13T07:52:15.507Z,572
2022-11-13T07:53:15.517Z,576
2022-11-13T07:54:15.527Z,580
2022-11-13T07:55:15.576Z,588
2022-11-13T07:56:18.905Z,592
2022-11-13T07:57:15.336Z,596
2022-11-13T07:58:15.600Z,604
2022-11-13T07:59:15.361Z,608
2022-11-13T08:00:15.233Z,616
2022-11-13T08:01:15.960Z,624
2022-11-13T08:02:15.151Z,628
2022-11-13T08:03:15.432Z,636
2022-11-13T08:04:15.448Z,640
2022-11-13T08:05:15.469Z,644
2022-11-13T08:06:15.473Z,644
2022-11-13T08:07:15.720Z,648
2022-11-13T08:08:15.760Z,652
2022-11-13T08:09:15.783Z,660
2022-11-13T08:10:15.787Z,660
2022-11-13T08:11:15.557Z,668
2022-11-13T08:12:16.135Z,676
2022-11-13T08:13:15.624Z,680
2022-11-13T08:14:15.596Z,688
2022-11-13T08:15:20.718Z,688
2022-11-13T08:16:15.907Z,692
2022-11-13T08:17:16.028Z,700
2022-11-13T08:18:15.425Z,708
2022-11-13T08:19:15.682Z,720
2022-11-13T08:20:15.956Z,728
2022-11-13T08:21:21.890Z,732
2022-11-13T08:22:15.738Z,732
2022-11-13T08:23:15.862Z,744
2022-11-13T08:24:16.026Z,744
2022-11-13T08:25:16.039Z,744
2022-11-13T08:26:15.799Z,740
2022-11-13T08:27:16.051Z,744
2022-11-13T08:28:20.738Z,748
2022-11-13T08:29:15.875Z,748
2022-11-13T08:30:15.880Z,748
2022-11-13T08:31:16.278Z,744
2022-11-13T08:32:16.212Z,736
2022-11-13T08:33:15.923Z,728
2022-11-13T08:34:15.937Z,716
2022-11-13T08:35:28.946Z,708
2022-11-13T08:36:16.270Z,708
2022-11-13T08:37:16.035Z,712
2022-11-13T08:38:16.377Z,724
2022-11-13T08:39:15.880Z,732
2022-11-13T08:40:16.039Z,736
2022-11-13T08:41:17.455Z,732
2022-11-13T08:42:16.114Z,724
2022-11-13T08:43:16.085Z,708
2022-11-13T08:44:16.618Z,684
2022-11-13T08:45:16.379Z,660
2022-11-13T08:46:16.143Z,648
2022-11-13T08:47:16.274Z,656
2022-11-13T08:48:15.915Z,664
2022-11-13T08:49:16.223Z,680
2022-11-13T08:50:15.949Z,688
2022-11-13T08:51:16.216Z,684
2022-11-13T08:52:16.516Z,680
2022-11-13T08:53:16.521Z,680
2022-11-13T08:54:16.556Z,672
2022-11-13T08:55:16.676Z,676
2022-11-13T08:56:16.574Z,672
2022-11-13T08:57:16.337Z,672
2022-11-13T08:58:16.602Z,676
2022-11-13T08:59:16.095Z,676
2022-11-13T09:00:16.620Z,688
2022-11-13T09:01:16.670Z,700
2022-11-13T09:02:16.079Z,712
2022-11-13T09:03:16.288Z,724
2022-11-13T09:04:16.667Z,740
2022-11-13T09:05:16.730Z,756
2022-11-13T09:06:16.479Z,768
2022-11-13T09:07:16.652Z,776
2022-11-13T09:08:16.507Z,780
2022-11-13T09:09:16.271Z,780
2022-11-13T09:10:16.809Z,780
2022-11-13T09:11:16.943Z,776
2022-11-13T09:12:16.576Z,768
2022-11-13T09:13:16.635Z,760
2022-11-13T09:14:16.611Z,748
2022-11-13T09:15:20.293Z,740
2022-11-13T09:16:16.887Z,736
2022-11-13T09:17:16.655Z,728
2022-11-13T09:18:16.417Z,716
2022-11-13T09:19:17.081Z,708
2022-11-13T09:20:25.904Z,700
2022-11-13T09:21:16.736Z,700
2022-11-13T09:22:16.752Z,696
2022-11-13T09:23:16.770Z,688
2022-11-13T09:24:17.047Z,684
2022-11-13T09:25:17.054Z,684
2022-11-13T09:26:17.074Z,684
2022-11-13T09:27:16.966Z,680
2022-11-13T09:28:17.105Z,680
2022-11-13T09:29:16.877Z,676
2022-11-13T09:30:17.141Z,676
2022-11-13T09:31:17.157Z,676
2022-11-13T09:32:17.404Z,672
2022-11-13T09:33:16.942Z,672
2022-11-13T09:34:16.955Z,672
2022-11-13T09:35:17.344Z,668
2022-11-13T09:36:16.987Z,668
2022-11-13T09:37:17.253Z,668
2022-11-13T09:38:18.356Z,664
2022-11-13T09:39:17.301Z,668
2022-11-13T09:40:17.059Z,664
2022-11-13T09:41:17.074Z,664
2022-11-13T09:42:16.826Z,664
2022-11-13T09:43:17.468Z,660
2022-11-13T09:44:17.372Z,664
2022-11-13T09:45:17.152Z,660
2022-11-13T09:46:16.894Z,664
2022-11-13T09:47:17.167Z,664
2022-11-13T09:48:17.418Z,660
2022-11-13T09:49:17.215Z,664
2022-11-13T09:50:16.966Z,664
2022-11-13T09:51:17.367Z,664
2022-11-13T09:52:16.997Z,660
2022-11-13T09:53:17.264Z,660
2022-11-13T09:54:17.547Z,660
2022-11-13T09:55:17.314Z,660
2022-11-13T09:56:17.782Z,656
2022-11-13T09:57:20.488Z,656
2022-11-13T09:58:17.777Z,656
2022-11-13T09:59:17.496Z,656
2022-11-13T10:00:17.442Z,652
2022-11-13T10:01:17.750Z,652
2022-11-13T10:02:17.474Z,648
2022-11-13T10:03:33.396Z,648
2022-11-13T10:04:22.456Z,648
2022-11-13T10:05:19.421Z,644
2022-11-13T10:06:19.559Z,644
2022-11-13T10:07:19.511Z,644
2022-11-13T10:08:19.736Z,644
2022-11-13T10:09:19.488Z,644
2022-11-13T10:10:19.260Z,640
2022-11-13T10:11:20.141Z,640
2022-11-13T10:12:19.543Z,640
2022-11-13T10:13:19.553Z,640
2022-11-13T10:14:19.842Z,640
2022-11-13T10:15:19.453Z,640
2022-11-13T10:16:19.355Z,636
2022-11-13T10:17:19.616Z,632
2022-11-13T10:18:19.655Z,632
2022-11-13T10:19:19.665Z,628
2022-11-13T10:20:20.423Z,628
2022-11-13T10:21:19.686Z,628
2022-11-13T10:22:40.143Z,628
2022-11-13T10:23:20.184Z,624
2022-11-13T10:24:21.495Z,624
2022-11-13T10:25:19.664Z,624
2022-11-13T10:26:19.887Z,620
2022-11-13T10:27:19.846Z,620
2022-11-13T10:28:56.108Z,620
2022-11-13T10:29:20.561Z,620
2022-11-13T10:30:19.655Z,620
2022-11-13T10:31:20.251Z,620
2022-11-13T10:32:19.616Z,616
2022-11-13T10:33:19.634Z,616
2022-11-13T10:34:19.939Z,616
2022-11-13T10:35:19.932Z,616
2022-11-13T10:36:20.444Z,612
2022-11-13T10:37:19.968Z,612
2022-11-13T10:38:20.663Z,612
2022-11-13T10:39:20.261Z,612
2022-11-13T10:40:20.013Z,608
2022-11-13T10:41:20.041Z,612
2022-11-13T10:42:20.311Z,608
2022-11-13T10:43:20.795Z,612
2022-11-13T10:44:20.072Z,608
2022-11-13T10:45:19.848Z,604
2022-11-13T10:46:20.127Z,604
2022-11-13T10:48:02.286Z,608
2022-11-13T10:48:20.139Z,600
2022-11-13T10:49:21.046Z,600
2022-11-13T10:50:20.074Z,600
2022-11-13T10:51:20.190Z,596
2022-11-13T10:52:20.715Z,592
2022-11-13T10:53:20.238Z,592
2022-11-13T10:54:20.629Z,592
2022-11-13T10:55:20.270Z,588
2022-11-13T10:56:20.534Z,588
2022-11-13T10:57:20.302Z,584
2022-11-13T10:58:20.574Z,568
2022-11-13T10:59:20.353Z,564
2022-11-13T11:00:20.694Z,576
2022-11-13T11:01:20.687Z,584
2022-11-13T11:02:20.652Z,588
2022-11-13T11:03:20.817Z,604
2022-11-13T11:04:20.160Z,604
2022-11-13T11:05:20.431Z,608
2022-11-13T11:06:20.715Z,612
2022-11-13T11:07:28.094Z,616
2022-11-13T11:08:20.826Z,616
2022-11-13T11:09:20.766Z,612
2022-11-13T11:10:20.633Z,616
2022-11-13T11:11:20.805Z,620
2022-11-13T11:12:23.191Z,616
2022-11-13T11:13:20.849Z,620
2022-11-13T11:14:20.861Z,620
2022-11-13T11:15:20.864Z,624
2022-11-13T11:16:20.871Z,624
2022-11-13T11:17:20.383Z,624
2022-11-13T11:18:20.396Z,628
2022-11-13T11:19:21.059Z,628
2022-11-13T11:20:20.688Z,632
2022-11-13T11:21:20.966Z,632
2022-11-13T11:22:20.976Z,636
2022-11-13T11:23:20.973Z,636
2022-11-13T11:24:20.745Z,640
2022-11-13T11:25:21.033Z,640
2022-11-13T11:26:21.173Z,640
2022-11-13T11:27:20.811Z,644
2022-11-13T11:28:20.570Z,644
2022-11-13T11:29:20.585Z,648
2022-11-13T11:30:21.192Z,648
2022-11-13T11:31:20.628Z,652
2022-11-13T11:32:21.144Z,652
2022-11-13T11:33:21.178Z,656
2022-11-13T11:34:20.947Z,660
2022-11-13T11:35:21.336Z,660
2022-11-13T11:36:20.699Z,664
2022-11-13T11:37:21.232Z,668
2022-11-13T11:38:21.103Z,668
2022-11-13T11:39:21.514Z,672
2022-11-13T11:40:21.300Z,676
2022-11-13T11:41:24.122Z,680
2022-11-13T11:42:21.103Z,680
2022-11-13T11:43:21.088Z,688
2022-11-13T11:44:21.371Z,688
2022-11-13T11:45:21.119Z,692
2022-11-13T11:46:21.146Z,696
2022-11-13T11:47:21.166Z,700
2022-11-13T11:48:20.919Z,704
2022-11-13T11:49:21.459Z,708
2022-11-13T11:50:21.355Z,712
2022-11-13T11:51:21.353Z,716
2022-11-13T11:52:21.245Z,720
2022-11-13T11:53:21.268Z,724
2022-11-13T11:54:21.537Z,724
2022-11-13T11:55:21.524Z,728
2022-11-13T11:56:21.571Z,728
2022-11-13T11:57:21.196Z,732
2022-11-13T11:58:21.607Z,740
2022-11-13T11:59:21.610Z,744
2022-11-13T12:00:21.448Z,748
2022-11-13T12:01:21.150Z,756
2022-11-13T12:02:21.160Z,760
2022-11-13T12:03:21.183Z,768
2022-11-13T12:04:21.453Z,776
2022-11-13T12:05:27.313Z,784
2022-11-13T12:06:21.767Z,792
2022-11-13T12:07:22.203Z,804
2022-11-13T12:08:21.791Z,812
2022-11-13T12:09:21.028Z,820
2022-11-13T12:10:21.558Z,824
2022-11-13T12:11:22.060Z,824
2022-11-13T12:12:21.591Z,832
2022-11-13T12:13:21.469Z,832
2022-11-13T12:14:21.371Z,836
2022-11-13T12:15:21.663Z,836
2022-11-13T12:16:28.026Z,840
2022-11-13T12:17:24.732Z,840
2022-11-13T12:18:21.691Z,832
2022-11-13T12:19:21.702Z,808
2022-11-13T12:20:21.738Z,772
2022-11-13T12:21:21.740Z,744
2022-11-13T12:22:21.760Z,728
2022-11-13T12:23:22.148Z,720
2022-11-13T12:24:22.071Z,712
2022-11-13T12:25:21.816Z,696
2022-11-13T12:26:21.584Z,692
2022-11-13T12:27:22.077Z,692
2022-11-13T12:28:22.111Z,740
2022-11-13T12:29:22.037Z,768
2022-11-13T12:30:21.948Z,776
2022-11-13T12:31:21.912Z,772
2022-11-13T12:32:21.933Z,772
2022-11-13T12:33:22.217Z,784
2022-11-13T12:34:21.993Z,800
2022-11-13T12:35:22.239Z,796
2022-11-13T12:36:22.005Z,788
2022-11-13T12:37:22.294Z,784
2022-11-13T12:38:22.134Z,800
2022-11-13T12:39:22.187Z,824
2022-11-13T12:40:22.086Z,880
2022-11-13T12:41:22.105Z,916
2022-11-13T12:42:22.102Z,936
2022-11-13T12:43:22.626Z,952
2022-11-13T12:44:22.392Z,964
2022-11-13T12:45:22.273Z,972
2022-11-13T12:46:22.453Z,988
2022-11-13T12:47:22.452Z,996
2022-11-13T12:48:22.211Z,1000
2022-11-13T12:49:21.712Z,1000
2022-11-13T12:50:21.998Z,1004
2022-11-13T12:51:22.525Z,996
2022-11-13T12:52:22.024Z,984
2022-11-13T12:53:22.298Z,960
2022-11-13T12:54:22.574Z,928
2022-11-13T12:55:22.716Z,892
2022-11-13T12:56:22.392Z,852
2022-11-13T12:57:25.790Z,800
2022-11-13T12:58:22.132Z,752
2022-11-13T12:59:38.097Z,712
2022-11-13T13:00:22.168Z,704
2022-11-13T13:01:23.202Z,692
2022-11-13T13:02:22.724Z,676
2022-11-13T13:03:22.488Z,668
2022-11-13T13:04:22.498Z,660
2022-11-13T13:05:22.262Z,660
2022-11-13T13:06:22.525Z,656
2022-11-13T13:07:22.559Z,644
2022-11-13T13:08:22.818Z,628
2022-11-13T13:09:22.583Z,608
2022-11-13T13:10:22.355Z,580
2022-11-13T13:11:23.007Z,556
2022-11-13T13:12:22.890Z,532
2022-11-13T13:13:29.834Z,516
2022-11-13T13:14:22.690Z,508
2022-11-13T13:15:23.218Z,496
2022-11-13T13:16:22.439Z,484
2022-11-13T13:17:22.843Z,480
2022-11-13T13:18:22.996Z,480
2022-11-13T13:19:22.643Z,476
2022-11-13T13:20:23.040Z,476
2022-11-13T13:21:23.065Z,472
2022-11-13T13:22:22.811Z,464
2022-11-13T13:23:23.091Z,464
2022-11-13T13:24:22.859Z,460
2022-11-13T13:25:22.866Z,460
2022-11-13T13:26:22.638Z,456
2022-11-13T13:27:23.031Z,460
2022-11-13T13:28:23.273Z,456
2022-11-13T13:29:22.683Z,456
2022-11-13T13:30:22.722Z,456
2022-11-13T13:31:23.455Z,460
2022-11-13T13:32:28.322Z,460
2022-11-13T13:33:23.017Z,456
2022-11-13T13:34:23.046Z,452
2022-11-13T13:35:22.527Z,444
2022-11-13T13:36:23.326Z,444
2022-11-13T13:37:23.077Z,440
2022-11-13T13:38:23.300Z,440
2022-11-13T13:39:23.119Z,440
2022-11-13T13:40:23.151Z,436
2022-11-13T13:41:23.396Z,432
2022-11-13T13:42:23.166Z,436
2022-11-13T13:43:23.297Z,432
2022-11-13T13:44:22.696Z,428
2022-11-13T13:45:30.437Z,428
2022-11-13T13:46:22.967Z,428
2022-11-13T13:47:23.757Z,424
2022-11-13T13:48:23.662Z,420
2022-11-13T13:49:23.549Z,424
2022-11-13T13:50:23.052Z,420
2022-11-13T13:51:23.319Z,416
2022-11-13T13:52:23.611Z,416
2022-11-13T13:53:23.364Z,416
2022-11-13T13:54:23.425Z,412
2022-11-13T13:55:23.663Z,412
2022-11-13T13:56:23.692Z,412
2022-11-13T13:57:23.439Z,408
2022-11-13T13:58:23.199Z,408
2022-11-13T13:59:23.844Z,404
2022-11-13T14:00:24.084Z,404
2022-11-13T14:01:27.114Z,400
2022-11-13T14:02:23.666Z,400
2022-11-13T14:03:24.025Z,400
2022-11-13T14:04:23.935Z,396
2022-11-13T14:05:23.561Z,396
2022-11-13T14:06:23.865Z,392
2022-11-13T14:07:24.233Z,392
2022-11-13T14:08:23.904Z,388
2022-11-13T14:09:23.391Z,388
2022-11-13T14:10:23.912Z,384
2022-11-13T14:11:23.703Z,384
2022-11-13T14:12:23.969Z,380
2022-11-13T14:13:23.714Z,380
2022-11-13T14:14:23.759Z,376
2022-11-13T14:15:23.870Z,376